Portada
METAR-TAF:

METAR-TAF

Aeroports :

Mae Sot, Tailàndia

latitud: 16-40N, longitud: 098-33E, altitud: 196 m

Observació

L'informe es va fer fa 2 hores i 0 minuts, a les 11:00 UTC
Vent 7 kt del Oest/Sud-Oest
Temperatura 31°C
Humitat 66%
Pressió 1007 hPa
Visibilitat 10 km o més
Escasses núvols a una alçada de 2500 ft

METAR: VTPM 231100Z 24007KT 9999 FEW025 31/24 Q1007 NOSIG

Hora: 20:00 (13:00 UTC)

Pronòstic

L'informe es va fer fa 2 hores i 0 minuts, a les 11:00 UTC
Pronòstic vàlid del 23 a les 12 UTC al 24 a les 12 UTC
Vent 5 kt del Oest/Sud-Oest
Visibilitat 10 km o més
Escasses núvols a una alçada de 2500 ft

TAF: VTPM 231100Z 2312/2412 24005KT 9999 FEW025

Observacions i pronòstics meteorològics de més de 4000 aeroports (METAR i TAF).

Les estacions disponibles són els punts grocs i vermells al mapa.

Posi el ratolí al punt desitjat per veure el nom de l'estació.

Feu clic per veure les observacions i els pronòstics meteorològics.

Per canviar el mapa: feu clic els botons verds amb una creu de color negre per apropar; al botó verd amb un guió per allunyar la imatge; o en les fletxes verdes per a mapes adjacents.


METAR-TAF: